Time;durP1;ratioP1;P1;durP2;ratioP2;P2;SDS_P1;SDS_P2;PMS_P1;PMS_P2;Temp;Humidity;BMP_temperature;BMP_pressure;BME280_temperature;BME280_humidity;BME280_pressure;Samples;Min_cycle;Max_cycle;Signal;HPM_P1;HPM_P2
2022/12/09 00:00:36;;;;;;;0.40;0.40;;;-0.80;99.90;;;;;;5028995;28;20183;-84
2022/12/09 00:03:02;;;;;;;0.30;0.30;;;-0.80;99.90;;;;;;5028759;28;20249;-83
2022/12/09 00:05:27;;;;;;;0.40;0.40;;;-0.80;99.90;;;;;;5029897;28;20446;-84
2022/12/09 00:07:53;;;;;;;0.40;0.40;;;-0.80;99.90;;;;;;5029040;28;20195;-84
2022/12/09 00:10:18;;;;;;;0.40;0.40;;;-0.70;99.90;;;;;;5029086;28;20181;-84
2022/12/09 00:12:44;;;;;;;0.40;0.40;;;-0.70;99.90;;;;;;5030409;28;20314;-84
2022/12/09 00:15:10;;;;;;;0.30;0.30;;;-0.60;99.90;;;;;;5029731;28;20192;-84
2022/12/09 00:17:35;;;;;;;0.30;0.30;;;-0.60;99.90;;;;;;5028020;28;20183;-84
2022/12/09 00:20:01;;;;;;;0.30;0.30;;;-0.60;99.90;;;;;;5023151;28;20474;-83
2022/12/09 00:22:27;;;;;;;0.40;0.40;;;-0.60;99.90;;;;;;5021636;28;20199;-83
2022/12/09 00:24:52;;;;;;;0.30;0.30;;;-0.60;99.90;;;;;;5027330;28;20250;-84
2022/12/09 00:27:18;;;;;;;0.40;0.40;;;-0.60;99.90;;;;;;5029375;28;20467;-83
2022/12/09 00:29:43;;;;;;;0.20;0.20;;;-0.60;99.90;;;;;;5026571;28;20539;-83
2022/12/09 00:32:09;;;;;;;0.37;0.37;;;-0.50;99.90;;;;;;5028588;28;20198;-84
2022/12/09 00:34:35;;;;;;;0.40;0.40;;;-0.50;99.90;;;;;;5030073;28;20230;-83
2022/12/09 00:37:00;;;;;;;0.30;0.30;;;-0.50;99.90;;;;;;5030820;28;20222;-84
2022/12/09 00:39:26;;;;;;;0.40;0.40;;;-0.50;99.90;;;;;;5028642;28;20188;-84
2022/12/09 00:41:51;;;;;;;0.30;0.30;;;-0.50;99.90;;;;;;5029991;28;20536;-84
2022/12/09 00:44:17;;;;;;;0.30;0.30;;;-0.50;99.90;;;;;;5022258;28;20215;-84
2022/12/09 00:46:42;;;;;;;0.40;0.40;;;-0.40;99.90;;;;;;5025770;28;20189;-84
2022/12/09 00:49:09;;;;;;;0.30;0.30;;;-0.40;99.90;;;;;;5030249;28;20188;-84
2022/12/09 00:51:35;;;;;;;0.20;0.20;;;-0.30;99.90;;;;;;5026972;28;20188;-84
2022/12/09 00:54:01;;;;;;;0.20;0.20;;;-0.30;99.90;;;;;;5030684;28;20520;-84
2022/12/09 00:56:28;;;;;;;0.30;0.30;;;-0.30;99.90;;;;;;5044873;28;20470;-84
2022/12/09 00:58:54;;;;;;;0.30;0.30;;;-0.30;99.90;;;;;;5031399;28;20870;-84
2022/12/09 01:01:20;;;;;;;0.30;0.30;;;-0.30;99.90;;;;;;5025102;28;20492;-84
2022/12/09 01:03:46;;;;;;;0.40;0.40;;;-0.30;99.90;;;;;;5030575;28;20454;-84
2022/12/09 01:06:16;;;;;;;0.40;0.40;;;-0.40;99.90;;;;;;5031763;28;20202;-84
2022/12/09 01:08:41;;;;;;;0.30;0.30;;;-0.40;99.90;;;;;;5029246;28;20202;-85
2022/12/09 01:11:12;;;;;;;0.40;0.40;;;-0.40;99.90;;;;;;5026779;28;20438;-84
2022/12/09 01:13:38;;;;;;;0.30;0.30;;;-0.40;99.90;;;;;;5028410;28;20226;-83
2022/12/09 01:16:11;;;;;;;0.30;0.30;;;-0.30;99.90;;;;;;5028900;28;20486;-84
2022/12/09 01:18:36;;;;;;;0.30;0.30;;;-0.40;99.90;;;;;;5021760;28;20446;-83
2022/12/09 01:21:02;;;;;;;0.30;0.30;;;-0.30;99.90;;;;;;5028370;28;20799;-84
2022/12/09 01:23:27;;;;;;;0.40;0.40;;;-0.30;99.90;;;;;;5023613;28;20188;-84
2022/12/09 01:25:53;;;;;;;0.37;0.37;;;-0.30;99.90;;;;;;5013618;28;20184;-84
2022/12/09 01:28:18;;;;;;;0.20;0.20;;;-0.30;99.90;;;;;;5029467;28;20191;-84
2022/12/09 01:30:44;;;;;;;0.37;0.37;;;-0.30;99.90;;;;;;5022178;28;20192;-84
2022/12/09 01:33:09;;;;;;;0.37;0.37;;;-0.30;99.90;;;;;;5023407;28;20755;-83
2022/12/09 01:35:40;;;;;;;0.40;0.40;;;-0.30;99.90;;;;;;5028216;28;20195;-84
2022/12/09 01:38:05;;;;;;;0.37;0.37;;;-0.40;99.90;;;;;;5026647;28;20192;-84
2022/12/09 01:40:31;;;;;;;0.30;0.30;;;-0.40;99.90;;;;;;5027254;28;20969;-84
2022/12/09 01:42:56;;;;;;;0.40;0.40;;;-0.40;99.90;;;;;;5030359;28;20187;-84
2022/12/09 01:45:22;;;;;;;0.30;0.30;;;-0.40;99.90;;;;;;5019764;28;20236;-84
2022/12/09 01:48:12;;;;;;;0.30;0.30;;;-0.40;99.90;;;;;;5027941;28;20191;-84
2022/12/09 01:50:43;;;;;;;0.30;0.30;;;-0.40;99.90;;;;;;5026468;28;20198;-84
2022/12/09 01:53:10;;;;;;;0.40;0.40;;;-0.40;99.90;;;;;;5028755;28;20485;-84
2022/12/09 01:55:36;;;;;;;0.30;0.30;;;-0.40;99.90;;;;;;5030280;28;20537;-85
2022/12/09 01:58:04;;;;;;;0.30;0.30;;;-0.40;99.90;;;;;;5029188;28;20604;-84
2022/12/09 02:00:29;;;;;;;0.40;0.40;;;-0.40;99.90;;;;;;5027087;28;20219;-84
2022/12/09 02:02:55;;;;;;;0.30;0.30;;;-0.40;99.90;;;;;;5029365;28;20509;-84
2022/12/09 02:05:23;;;;;;;0.30;0.30;;;-0.30;99.90;;;;;;5031559;28;20254;-84
2022/12/09 02:07:49;;;;;;;0.40;0.40;;;-0.30;99.90;;;;;;5029621;28;20469;-84
2022/12/09 02:10:16;;;;;;;0.40;0.40;;;-0.40;99.90;;;;;;5028825;28;20442;-84
2022/12/09 02:12:53;;;;;;;0.20;0.20;;;-0.40;99.90;;;;;;5022588;28;20482;-84
2022/12/09 02:15:29;;;;;;;0.40;0.40;;;-0.30;99.90;;;;;;5025808;28;20978;-84
2022/12/09 02:18:06;;;;;;;0.30;0.30;;;-0.40;99.90;;;;;;5019320;28;20467;-84
2022/12/09 02:20:44;;;;;;;0.30;0.30;;;-0.30;99.90;;;;;;5029267;28;20457;-84
2022/12/09 02:23:12;;;;;;;0.50;0.50;;;-0.30;99.90;;;;;;5029254;28;20450;-84
2022/12/09 02:25:46;;;;;;;0.30;0.30;;;-0.30;99.90;;;;;;5023748;28;20462;-84
2022/12/09 02:28:46;;;;;;;0.30;0.30;;;-0.30;99.90;;;;;;5016131;28;20587;-84
2022/12/09 02:31:42;;;;;;;0.40;0.40;;;-0.30;99.90;;;;;;5028018;28;20545;-84
2022/12/09 02:34:17;;;;;;;0.30;0.30;;;-0.30;99.90;;;;;;5026610;28;20489;-84
2022/12/09 02:37:15;;;;;;;0.40;0.40;;;-0.30;99.90;;;;;;5021559;28;20453;-84
2022/12/09 02:39:52;;;;;;;0.30;0.30;;;-0.30;99.90;;;;;;5019988;28;20477;-84
2022/12/09 02:42:20;;;;;;;0.40;0.40;;;-0.40;99.90;;;;;;5023788;28;20449;-84
2022/12/09 02:44:48;;;;;;;0.40;0.40;;;-0.40;99.90;;;;;;5024887;28;20855;-83
2022/12/09 02:47:18;;;;;;;0.30;0.30;;;-0.40;99.90;;;;;;5027394;28;20482;-84
2022/12/09 02:49:49;;;;;;;0.40;0.40;;;-0.40;99.90;;;;;;5027788;28;20928;-84
2022/12/09 02:52:16;;;;;;;0.37;0.37;;;-0.50;99.90;;;;;;5026645;28;20450;-84
2022/12/09 02:54:43;;;;;;;0.40;0.40;;;-0.40;99.90;;;;;;5027991;28;20619;-84
2022/12/09 02:57:15;;;;;;;0.33;0.33;;;-0.40;99.90;;;;;;5014733;28;20451;-84
2022/12/09 02:59:41;;;;;;;0.30;0.30;;;-0.40;99.90;;;;;;5027801;28;20789;-84
2022/12/09 03:02:10;;;;;;;0.30;0.30;;;-0.40;99.90;;;;;;5023373;28;20457;-84
2022/12/09 03:04:39;;;;;;;0.27;0.27;;;-0.40;99.90;;;;;;5023730;28;20188;-85
2022/12/09 03:07:28;;;;;;;0.30;0.30;;;-0.50;99.90;;;;;;5029275;28;20474;-84
2022/12/09 03:10:02;;;;;;;0.30;0.30;;;-0.50;99.90;;;;;;5026491;28;20449;-84
2022/12/09 03:12:32;;;;;;;0.40;0.40;;;-0.50;99.90;;;;;;5028678;28;20500;-85
2022/12/09 03:14:59;;;;;;;0.30;0.30;;;-0.50;99.90;;;;;;5025067;28;20458;-84
2022/12/09 03:17:33;;;;;;;0.40;0.40;;;-0.40;99.90;;;;;;5027250;28;20500;-84
2022/12/09 03:20:07;;;;;;;0.40;0.40;;;-0.40;99.90;;;;;;5025906;28;20464;-84
2022/12/09 03:22:34;;;;;;;0.33;0.33;;;-0.40;99.90;;;;;;5027160;28;20430;-84
2022/12/09 03:25:22;;;;;;;0.30;0.30;;;-0.40;99.90;;;;;;5027340;28;20541;-84
2022/12/09 03:27:56;;;;;;;0.33;0.33;;;-0.40;99.90;;;;;;5032401;28;20509;-84
2022/12/09 03:30:22;;;;;;;0.30;0.30;;;-0.40;99.90;;;;;;5027889;28;20488;-84
2022/12/09 03:32:49;;;;;;;0.30;0.30;;;-0.40;99.90;;;;;;5032317;28;20498;-84
2022/12/09 03:35:25;;;;;;;0.30;0.30;;;-0.50;99.90;;;;;;5026456;28;20195;-84
2022/12/09 03:37:51;;;;;;;0.20;0.20;;;-0.50;99.90;;;;;;5024952;28;20946;-83
2022/12/09 03:40:26;;;;;;;0.30;0.30;;;-0.50;99.90;;;;;;5026874;28;21025;-84
2022/12/09 03:43:02;;;;;;;0.30;0.30;;;-0.40;99.90;;;;;;5029248;28;20491;-84
2022/12/09 03:45:28;;;;;;;0.40;0.40;;;-0.50;99.90;;;;;;5028581;28;20442;-84
2022/12/09 03:47:54;;;;;;;0.40;0.40;;;-0.40;99.90;;;;;;5031499;28;20446;-84
2022/12/09 03:50:29;;;;;;;0.40;0.40;;;-0.50;99.90;;;;;;5028214;28;20443;-84
2022/12/09 03:53:03;;;;;;;0.30;0.30;;;-0.40;99.90;;;;;;5032152;28;20485;-85
2022/12/09 03:55:55;;;;;;;0.23;0.23;;;-0.50;99.90;;;;;;5026730;28;20976;-84
2022/12/09 03:58:20;;;;;;;0.30;0.30;;;-0.50;99.90;;;;;;5031424;28;20813;-83
2022/12/09 04:00:47;;;;;;;0.40;0.40;;;-0.40;99.90;;;;;;5029885;28;20449;-84
2022/12/09 04:03:13;;;;;;;0.37;0.37;;;-0.40;99.90;;;;;;5030584;28;20187;-83
2022/12/09 04:05:39;;;;;;;0.40;0.40;;;-0.40;99.90;;;;;;5032353;28;20449;-84
2022/12/09 04:08:05;;;;;;;0.40;0.40;;;-0.50;99.90;;;;;;5031219;28;20433;-84
2022/12/09 04:10:31;;;;;;;0.30;0.30;;;-0.50;99.90;;;;;;5030888;28;20198;-84
2022/12/09 04:12:56;;;;;;;0.40;0.40;;;-0.50;99.90;;;;;;5030879;28;20215;-84
2022/12/09 04:15:22;;;;;;;0.30;0.30;;;-0.60;99.90;;;;;;5027560;28;20607;-84
2022/12/09 04:17:47;;;;;;;0.27;0.27;;;-0.50;99.90;;;;;;5019743;28;20210;-84
2022/12/09 04:20:13;;;;;;;0.40;0.40;;;-0.60;99.90;;;;;;5028740;28;20237;-83
2022/12/09 04:22:38;;;;;;;0.40;0.40;;;-0.50;99.90;;;;;;5029376;28;20187;-84
2022/12/09 04:25:04;;;;;;;0.30;0.30;;;-0.50;99.90;;;;;;5029110;28;20217;-84
2022/12/09 04:27:30;;;;;;;0.40;0.40;;;-0.50;99.90;;;;;;5030502;28;20190;-84
2022/12/09 04:29:55;;;;;;;0.30;0.30;;;-0.50;99.90;;;;;;5029068;28;20538;-84
2022/12/09 04:32:21;;;;;;;0.30;0.30;;;-0.40;99.90;;;;;;5027253;28;20361;-84
2022/12/09 04:34:47;;;;;;;0.20;0.20;;;-0.40;99.90;;;;;;5030675;28;20202;-84
2022/12/09 04:37:14;;;;;;;0.20;0.20;;;-0.40;99.90;;;;;;5015006;28;20807;-84
2022/12/09 04:39:40;;;;;;;0.30;0.30;;;-0.50;99.90;;;;;;5031290;28;20188;-84
2022/12/09 04:42:06;;;;;;;0.30;0.30;;;-0.40;99.90;;;;;;5027974;28;20445;-84
2022/12/09 04:44:31;;;;;;;0.30;0.30;;;-0.40;99.90;;;;;;5028211;28;20454;-84
2022/12/09 04:46:57;;;;;;;0.30;0.30;;;-0.40;99.90;;;;;;5029593;28;20234;-84
2022/12/09 04:49:22;;;;;;;0.30;0.30;;;-0.40;99.90;;;;;;5027626;28;20676;-84
2022/12/09 04:51:48;;;;;;;0.30;0.30;;;-0.40;99.90;;;;;;5029033;28;20194;-84
2022/12/09 04:54:13;;;;;;;0.30;0.30;;;-0.40;99.90;;;;;;5031722;28;20265;-83
2022/12/09 04:56:39;;;;;;;0.30;0.30;;;-0.40;99.90;;;;;;5030106;28;20242;-83
2022/12/09 04:59:05;;;;;;;0.30;0.30;;;-0.40;99.90;;;;;;5031753;28;20176;-84
2022/12/09 05:01:31;;;;;;;0.20;0.20;;;-0.40;99.90;;;;;;5026864;28;20995;-84
2022/12/09 05:03:56;;;;;;;0.23;0.23;;;-0.50;99.90;;;;;;5028106;28;20208;-83
2022/12/09 05:06:22;;;;;;;0.17;0.17;;;-0.40;99.90;;;;;;5028644;28;20179;-84
2022/12/09 05:08:48;;;;;;;0.30;0.30;;;-0.50;99.90;;;;;;5030224;28;20282;-83
2022/12/09 05:11:15;;;;;;;0.30;0.30;;;-0.50;99.90;;;;;;5043060;28;20474;-83
2022/12/09 05:13:40;;;;;;;0.33;0.33;;;-0.50;99.90;;;;;;5023356;28;20513;-83
2022/12/09 05:16:09;;;;;;;0.40;0.40;;;-0.40;99.90;;;;;;5023713;28;21070;-83
2022/12/09 05:18:35;;;;;;;0.40;0.40;;;-0.50;99.90;;;;;;5026806;28;20199;-83
2022/12/09 05:21:06;;;;;;;0.30;0.30;;;-0.50;99.90;;;;;;5026763;28;20453;-84
2022/12/09 05:23:32;;;;;;;0.30;0.30;;;-0.50;99.90;;;;;;5029357;28;20252;-84
2022/12/09 05:25:58;;;;;;;0.30;0.30;;;-0.50;99.90;;;;;;5028928;28;20802;-84
2022/12/09 05:28:23;;;;;;;0.40;0.40;;;-0.60;99.90;;;;;;5028182;28;20434;-84
2022/12/09 05:30:48;;;;;;;0.30;0.30;;;-0.60;99.90;;;;;;5013246;28;20235;-84
2022/12/09 05:33:14;;;;;;;0.30;0.30;;;-0.60;99.90;;;;;;5017757;28;20234;-84
2022/12/09 05:35:43;;;;;;;0.30;0.30;;;-0.60;99.90;;;;;;5029665;28;20184;-84
2022/12/09 05:38:08;;;;;;;0.40;0.40;;;-0.70;99.90;;;;;;5030263;28;20183;-84
2022/12/09 05:40:35;;;;;;;0.30;0.30;;;-0.70;99.90;;;;;;5026910;28;20450;-84
2022/12/09 05:43:00;;;;;;;0.40;0.40;;;-0.70;99.90;;;;;;5023961;28;20521;-84
2022/12/09 05:45:26;;;;;;;0.30;0.30;;;-0.70;99.90;;;;;;5022024;28;21036;-84
2022/12/09 05:47:51;;;;;;;0.30;0.30;;;-0.80;99.90;;;;;;5024645;28;20195;-84
2022/12/09 05:50:17;;;;;;;0.23;0.23;;;-0.70;99.90;;;;;;5029456;28;20190;-84
2022/12/09 05:52:42;;;;;;;0.40;0.40;;;-0.70;99.90;;;;;;5019890;28;20208;-84
2022/12/09 05:55:09;;;;;;;0.30;0.30;;;-0.80;99.90;;;;;;5027861;28;20284;-84
2022/12/09 05:57:35;;;;;;;0.30;0.30;;;-0.80;99.90;;;;;;5044949;28;20188;-84
2022/12/09 06:00:00;;;;;;;0.30;0.30;;;-0.80;99.90;;;;;;5027755;28;20505;-84
2022/12/09 06:02:26;;;;;;;0.30;0.30;;;-0.80;99.90;;;;;;5025987;28;20445;-84
2022/12/09 06:04:51;;;;;;;0.20;0.20;;;-0.80;99.90;;;;;;5025019;28;20187;-84
2022/12/09 06:07:17;;;;;;;0.40;0.40;;;-0.90;99.90;;;;;;5022224;28;20194;-85
2022/12/09 06:09:43;;;;;;;0.30;0.30;;;-0.90;99.90;;;;;;5024646;28;20179;-83
2022/12/09 06:12:09;;;;;;;0.30;0.30;;;-0.90;99.90;;;;;;5017576;28;20187;-83
2022/12/09 06:14:34;;;;;;;0.40;0.40;;;-0.90;99.90;;;;;;5012395;28;20525;-83
2022/12/09 06:17:00;;;;;;;0.40;0.40;;;-0.90;99.90;;;;;;5013712;28;20688;-83
2022/12/09 06:19:25;;;;;;;0.40;0.40;;;-0.90;99.90;;;;;;5013614;28;20277;-83
2022/12/09 06:21:51;;;;;;;0.30;0.30;;;-0.90;99.90;;;;;;5027551;28;20532;-83
2022/12/09 06:24:16;;;;;;;0.30;0.30;;;-0.90;99.90;;;;;;5027147;28;20717;-83
2022/12/09 06:26:42;;;;;;;0.30;0.30;;;-0.80;99.90;;;;;;5026271;28;20202;-83
2022/12/09 06:29:08;;;;;;;0.40;0.40;;;-0.80;99.90;;;;;;5028197;28;20715;-83
2022/12/09 06:31:33;;;;;;;0.30;0.30;;;-0.80;99.90;;;;;;5019582;28;20190;-84
2022/12/09 06:33:59;;;;;;;0.40;0.40;;;-0.80;99.90;;;;;;5023107;28;20561;-85
2022/12/09 06:36:26;;;;;;;0.30;0.30;;;-0.80;99.90;;;;;;5027066;28;20206;-86
2022/12/09 06:38:51;;;;;;;0.30;0.30;;;-0.80;99.90;;;;;;5029571;28;20527;-86
2022/12/09 06:41:17;;;;;;;0.30;0.30;;;-0.80;99.90;;;;;;5024720;28;20543;-86
2022/12/09 06:43:43;;;;;;;0.37;0.37;;;-0.80;99.90;;;;;;5027531;28;20180;-85
2022/12/09 06:46:22;;;;;;;0.40;0.40;;;-0.80;99.90;;;;;;5026366;28;20183;-83
2022/12/09 06:48:51;;;;;;;0.40;0.40;;;-0.80;99.90;;;;;;5023666;28;20215;-85
2022/12/09 06:51:17;;;;;;;0.23;0.23;;;-0.90;99.90;;;;;;5026212;28;20482;-84
2022/12/09 06:53:43;;;;;;;0.40;0.40;;;-0.90;99.90;;;;;;5023788;28;20496;-84
2022/12/09 06:56:11;;;;;;;0.40;0.40;;;-1.00;99.90;;;;;;5015626;28;20442;-84
2022/12/09 06:58:57;;;;;;;;;;;;;;;;;;;;;
2022/12/09 07:01:24;;;;;;;0.30;0.30;;;-1.10;99.90;;;;;;5029066;28;20450;-82
2022/12/09 07:03:52;;;;;;;0.47;0.47;;;-1.10;99.90;;;;;;5028269;28;20549;-83
2022/12/09 07:06:38;;;;;;;0.37;0.37;;;-1.00;99.90;;;;;;5028664;28;21271;-83
2022/12/09 07:09:06;;;;;;;0.43;0.43;;;-1.00;99.90;;;;;;5025691;28;21083;-85
2022/12/09 07:11:32;;;;;;;0.20;0.20;;;-1.00;99.90;;;;;;5014376;28;20426;-84
2022/12/09 07:13:58;;;;;;;0.40;0.40;;;-1.00;99.90;;;;;;5022377;28;20486;-85
2022/12/09 07:16:24;;;;;;;0.37;0.37;;;-1.00;99.90;;;;;;5023535;28;20895;-85
2022/12/09 07:18:49;;;;;;;0.50;0.50;;;-1.10;99.90;;;;;;5026922;28;20969;-84
2022/12/09 07:21:17;;;;;;;0.40;0.40;;;-1.10;99.90;;;;;;5024266;28;20214;-84
2022/12/09 07:23:43;;;;;;;0.40;0.40;;;-1.10;99.90;;;;;;5022390;28;20282;-85
2022/12/09 07:26:09;;;;;;;0.30;0.30;;;-1.10;99.90;;;;;;5016694;28;20512;-85
2022/12/09 07:28:37;;;;;;;0.40;0.40;;;-1.10;99.90;;;;;;5031452;28;20847;-85
2022/12/09 07:31:04;;;;;;;0.40;0.40;;;-1.10;99.90;;;;;;5029006;28;20187;-84
2022/12/09 07:33:30;;;;;;;0.40;0.40;;;-1.10;99.90;;;;;;5028948;28;20568;-84
2022/12/09 07:35:56;;;;;;;0.30;0.30;;;-1.10;99.90;;;;;;5028685;28;20978;-85
2022/12/09 07:38:24;;;;;;;0.40;0.40;;;-1.10;99.90;;;;;;5029576;28;20968;-84
2022/12/09 07:40:50;;;;;;;0.50;0.50;;;-1.10;99.90;;;;;;5023857;28;20439;-83
2022/12/09 07:43:16;;;;;;;0.40;0.40;;;-1.00;99.90;;;;;;5030925;28;20576;-84
2022/12/09 07:45:43;;;;;;;0.40;0.40;;;-0.90;99.90;;;;;;5027937;28;20446;-83
2022/12/09 07:48:09;;;;;;;0.50;0.50;;;-0.90;99.90;;;;;;5029358;28;20537;-82
2022/12/09 07:50:35;;;;;;;0.30;0.30;;;-0.90;99.90;;;;;;5028279;28;21155;-83
2022/12/09 07:53:00;;;;;;;0.30;0.30;;;-0.90;99.90;;;;;;5027564;28;20469;-83
2022/12/09 07:55:29;;;;;;;0.33;0.33;;;-0.90;99.90;;;;;;5026026;28;20456;-83
2022/12/09 07:57:54;;;;;;;0.40;0.40;;;-0.80;99.90;;;;;;5030248;28;20200;-83
2022/12/09 08:00:20;;;;;;;0.40;0.40;;;-0.80;99.90;;;;;;5029795;28;20450;-84
2022/12/09 08:02:46;;;;;;;0.40;0.40;;;-0.80;99.90;;;;;;5027421;28;20192;-83
2022/12/09 08:05:11;;;;;;;0.33;0.33;;;-0.80;99.90;;;;;;5029772;28;21097;-83
2022/12/09 08:07:37;;;;;;;0.30;0.30;;;-0.80;99.90;;;;;;5017543;28;20195;-84
2022/12/09 08:10:03;;;;;;;0.40;0.40;;;-0.70;99.90;;;;;;5018301;28;20192;-85
2022/12/09 08:12:29;;;;;;;0.20;0.20;;;-0.70;99.90;;;;;;5021945;28;20187;-85
2022/12/09 08:14:54;;;;;;;0.30;0.30;;;-0.60;99.90;;;;;;5025475;28;20873;-84
2022/12/09 08:17:20;;;;;;;0.30;0.30;;;-0.60;99.90;;;;;;5027112;28;20199;-83
2022/12/09 08:19:46;;;;;;;0.30;0.30;;;-0.60;99.90;;;;;;5027873;28;20200;-84
2022/12/09 08:22:11;;;;;;;0.40;0.40;;;-0.50;99.90;;;;;;5029318;28;20458;-83
2022/12/09 08:24:37;;;;;;;0.30;0.30;;;-0.50;99.90;;;;;;5043676;28;22447;-84
2022/12/09 08:27:02;;;;;;;0.40;0.40;;;-0.50;99.90;;;;;;5028735;28;20210;-84
2022/12/09 08:29:28;;;;;;;0.23;0.23;;;-0.50;99.90;;;;;;5027256;28;20257;-85
2022/12/09 08:31:53;;;;;;;0.40;0.40;;;-0.50;99.90;;;;;;5027535;28;20219;-85
2022/12/09 08:34:19;;;;;;;0.40;0.40;;;-0.50;99.90;;;;;;5028919;28;20739;-83
2022/12/09 08:36:44;;;;;;;0.40;0.40;;;-0.40;99.90;;;;;;5026719;28;20183;-82
2022/12/09 08:39:11;;;;;;;0.50;0.50;;;-0.30;99.90;;;;;;5026568;28;20266;-83
2022/12/09 08:41:37;;;;;;;0.40;0.40;;;-0.20;99.90;;;;;;5015312;28;20188;-82
2022/12/09 08:44:17;;;;;;;0.40;0.40;;;-0.10;99.90;;;;;;5029906;28;20500;-83
2022/12/09 08:46:46;;;;;;;0.30;0.30;;;0.00;99.90;;;;;;5024546;28;20188;-83
2022/12/09 08:49:12;;;;;;;0.40;0.40;;;0.20;99.90;;;;;;5024933;28;20939;-83
2022/12/09 08:51:38;;;;;;;0.40;0.40;;;0.20;99.90;;;;;;5025811;28;20529;-83
2022/12/09 08:54:04;;;;;;;0.40;0.40;;;0.30;99.90;;;;;;5029607;28;20580;-82
2022/12/09 08:56:29;;;;;;;0.30;0.30;;;0.40;99.90;;;;;;5028929;28;20442;-82
2022/12/09 08:58:55;;;;;;;0.30;0.30;;;0.50;99.90;;;;;;5029731;28;20234;-83
2022/12/09 09:01:23;;;;;;;0.30;0.30;;;0.60;99.90;;;;;;5028617;28;20612;-83
2022/12/09 09:03:49;;;;;;;0.30;0.30;;;0.60;99.90;;;;;;5026901;28;20187;-83
2022/12/09 09:06:15;;;;;;;0.37;0.37;;;0.70;99.90;;;;;;5022558;28;20442;-82
2022/12/09 09:08:41;;;;;;;0.40;0.40;;;0.70;99.90;;;;;;5028222;28;20512;-83
2022/12/09 09:11:13;;;;;;;0.30;0.30;;;0.90;99.90;;;;;;5026840;28;20922;-83
2022/12/09 09:13:41;;;;;;;0.30;0.30;;;0.90;99.90;;;;;;5027346;28;20501;-83
2022/12/09 09:16:13;;;;;;;0.30;0.30;;;0.90;99.90;;;;;;5025206;28;20434;-83
2022/12/09 09:18:39;;;;;;;0.30;0.30;;;1.00;99.90;;;;;;5022589;28;20458;-83
2022/12/09 09:21:06;;;;;;;0.30;0.30;;;1.00;99.90;;;;;;5028044;28;20805;-83
2022/12/09 09:23:32;;;;;;;0.40;0.40;;;1.00;99.90;;;;;;5026900;28;20183;-83
2022/12/09 09:25:58;;;;;;;0.40;0.40;;;1.20;99.90;;;;;;5027877;28;20461;-83
2022/12/09 09:28:24;;;;;;;0.30;0.30;;;1.40;99.90;;;;;;5026550;28;20455;-83
2022/12/09 09:31:00;;;;;;;0.30;0.30;;;1.50;99.90;;;;;;5030254;28;20180;-83
2022/12/09 09:33:26;;;;;;;0.30;0.30;;;1.50;99.90;;;;;;5023893;28;20991;-83
2022/12/09 09:36:00;;;;;;;0.30;0.30;;;1.70;99.90;;;;;;5019847;28;20494;-82
2022/12/09 09:38:28;;;;;;;0.30;0.30;;;1.80;99.90;;;;;;5018215;28;20196;-82
2022/12/09 09:40:54;;;;;;;0.40;0.40;;;2.00;99.90;;;;;;5023734;28;20450;-83
2022/12/09 09:43:24;;;;;;;0.30;0.30;;;2.30;99.90;;;;;;5030364;28;20419;-82
2022/12/09 09:45:51;;;;;;;0.10;0.10;;;2.40;99.90;;;;;;5023378;28;20447;-83
2022/12/09 09:48:21;;;;;;;0.40;0.40;;;2.30;99.90;;;;;;5028319;28;21374;-83
2022/12/09 09:50:52;;;;;;;0.30;0.30;;;2.60;99.90;;;;;;5025685;28;20453;-82
2022/12/09 09:53:24;;;;;;;0.30;0.30;;;2.70;99.90;;;;;;5023670;28;20497;-82
2022/12/09 09:56:03;;;;;;;0.30;0.30;;;2.40;99.90;;;;;;5011075;28;20450;-82
2022/12/09 09:58:52;;;;;;;0.40;0.40;;;2.10;99.90;;;;;;5026929;28;20450;-83
2022/12/09 10:01:18;;;;;;;0.30;0.30;;;1.80;99.90;;;;;;5039102;28;20474;-83
2022/12/09 10:04:00;;;;;;;0.30;0.30;;;1.80;99.90;;;;;;5026267;28;20438;-83
2022/12/09 10:06:39;;;;;;;0.30;0.30;;;1.80;99.90;;;;;;5022584;28;20480;-82
2022/12/09 10:09:36;;;;;;;0.20;0.20;;;1.90;99.90;;;;;;5025228;28;20448;-83
2022/12/09 10:12:26;;;;;;;0.30;0.30;;;1.90;99.90;;;;;;5028401;28;20449;-83
2022/12/09 10:15:00;;;;;;;0.30;0.30;;;1.90;99.90;;;;;;5028684;28;20600;-83
2022/12/09 10:17:32;;;;;;;0.20;0.20;;;2.00;99.90;;;;;;5023219;28;21059;-83
2022/12/09 10:20:08;;;;;;;0.30;0.30;;;2.00;99.90;;;;;;5027647;28;20445;-83
2022/12/09 10:22:45;;;;;;;0.30;0.30;;;2.00;99.90;;;;;;5024911;28;20456;-82
2022/12/09 10:25:18;;;;;;;0.30;0.30;;;2.10;99.90;;;;;;5026300;28;22578;-82
2022/12/09 10:28:00;;;;;;;0.30;0.30;;;2.10;99.90;;;;;;5023079;28;20442;-83
2022/12/09 10:30:26;;;;;;;0.23;0.23;;;3.40;99.90;;;;;;5018950;28;20488;-83
2022/12/09 10:32:52;;;;;;;0.30;0.30;;;4.10;99.90;;;;;;5027977;28;20485;-83
2022/12/09 10:35:27;;;;;;;0.30;0.30;;;4.00;99.90;;;;;;5027821;28;20206;-83
2022/12/09 10:38:03;;;;;;;0.30;0.30;;;4.00;99.90;;;;;;5026468;28;21008;-83
2022/12/09 10:40:45;;;;;;;0.30;0.30;;;4.20;99.90;;;;;;5028861;28;20487;-83
2022/12/09 10:43:35;;;;;;;0.20;0.20;;;3.90;99.90;;;;;;5038658;28;20468;-83
2022/12/09 10:46:08;;;;;;;0.20;0.20;;;3.80;99.90;;;;;;5026967;28;20439;-83
2022/12/09 10:48:47;;;;;;;0.30;0.30;;;3.40;99.90;;;;;;5023970;28;20438;-83
2022/12/09 10:51:29;;;;;;;0.20;0.20;;;3.10;99.90;;;;;;5023953;28;20469;-82
2022/12/09 10:54:02;;;;;;;0.27;0.27;;;3.10;99.90;;;;;;5025304;28;20521;-83
2022/12/09 10:56:29;;;;;;;0.20;0.20;;;3.20;99.90;;;;;;5018212;28;20470;-83
2022/12/09 10:59:18;;;;;;;0.30;0.30;;;3.00;99.90;;;;;;5026400;28;20506;-83
2022/12/09 11:01:56;;;;;;;0.20;0.20;;;3.30;99.90;;;;;;5027917;28;20453;-83
2022/12/09 11:04:39;;;;;;;0.23;0.23;;;3.20;99.90;;;;;;5024745;28;20446;-83
2022/12/09 11:07:11;;;;;;;0.30;0.30;;;3.30;99.90;;;;;;5025715;28;20454;-82
2022/12/09 11:09:40;;;;;;;0.30;0.30;;;3.40;99.90;;;;;;5020943;28;20451;-82
2022/12/09 11:12:18;;;;;;;0.30;0.30;;;3.60;99.90;;;;;;5022609;28;20462;-83
2022/12/09 11:14:55;;;;;;;0.20;0.20;;;3.80;99.90;;;;;;5028124;28;20969;-82
2022/12/09 11:17:29;;;;;;;0.20;0.20;;;3.80;99.90;;;;;;5025340;28;20537;-82
2022/12/09 11:20:03;;;;;;;0.13;0.13;;;4.00;99.90;;;;;;5026734;28;20458;-82
2022/12/09 11:22:41;;;;;;;0.20;0.20;;;4.00;99.90;;;;;;5023828;28;20443;-81
2022/12/09 11:25:21;;;;;;;0.20;0.20;;;4.00;99.90;;;;;;5023488;28;20481;-81
2022/12/09 11:28:00;;;;;;;0.10;0.10;;;4.10;99.90;;;;;;5023253;28;20794;-80
2022/12/09 11:30:28;;;;;;;0.20;0.20;;;4.30;99.90;;;;;;5023107;28;20442;-80
2022/12/09 11:32:59;;;;;;;0.10;0.10;;;4.50;99.90;;;;;;5025906;28;20520;-80
2022/12/09 11:35:51;;;;;;;0.20;0.20;;;4.70;99.90;;;;;;5021541;28;20434;-80
2022/12/09 11:38:37;;;;;;;0.20;0.20;;;4.70;99.90;;;;;;5019116;28;20438;-82
2022/12/09 11:42:12;;;;;;;0.20;0.20;;;4.90;99.90;;;;;;5020665;28;20976;-81
2022/12/09 11:44:12;;;;;;;0.20;0.20;;;5.50;99.90;;;;;;5025026;28;20457;-81
2022/12/09 11:46:37;;;;;;;0.20;0.20;;;5.70;99.90;;;;;;5020282;28;20578;-82
2022/12/09 11:49:12;;;;;;;0.20;0.20;;;6.00;99.90;;;;;;5017385;28;20533;-84
2022/12/09 11:51:42;;;;;;;0.10;0.10;;;6.10;99.90;;;;;;5031889;28;20213;-81
2022/12/09 11:54:22;;;;;;;0.20;0.20;;;6.30;99.90;;;;;;5032399;28;20474;-82
2022/12/09 11:56:50;;;;;;;0.13;0.13;;;6.60;99.90;;;;;;5029810;28;20932;-80
2022/12/09 11:59:24;;;;;;;0.20;0.20;;;6.80;99.90;;;;;;5030790;28;20496;-82
2022/12/09 12:02:12;;;;;;;0.20;0.20;;;6.90;99.90;;;;;;5026873;28;20430;-82
2022/12/09 12:04:49;;;;;;;0.20;0.20;;;6.10;99.90;;;;;;5027754;28;20515;-82
2022/12/09 12:07:23;;;;;;;0.10;0.10;;;6.10;99.90;;;;;;5028351;28;20531;-82
2022/12/09 12:09:58;;;;;;;0.10;0.10;;;6.60;99.90;;;;;;5029395;28;20573;-80
2022/12/09 12:12:43;;;;;;;0.17;0.17;;;6.30;99.90;;;;;;5019815;28;20485;-80
2022/12/09 12:15:29;;;;;;;0.17;0.17;;;6.30;99.90;;;;;;5028785;28;20550;-80
2022/12/09 12:17:55;;;;;;;0.10;0.10;;;6.00;99.90;;;;;;5027411;28;20450;-80
2022/12/09 12:20:32;;;;;;;0.10;0.10;;;5.40;99.90;;;;;;5027181;28;20446;-80
2022/12/09 12:23:24;;;;;;;0.10;0.10;;;6.10;99.90;;;;;;5029283;28;20438;-79
2022/12/09 12:26:00;;;;;;;0.10;0.10;;;5.90;99.90;;;;;;5026796;28;20454;-80
2022/12/09 12:28:40;;;;;;;0.20;0.20;;;5.70;99.90;;;;;;5018638;28;20505;-79
2022/12/09 12:31:43;;;;;;;0.10;0.10;;;5.70;99.90;;;;;;5030256;28;20460;-80
2022/12/09 12:34:28;;;;;;;0.17;0.17;;;5.80;99.90;;;;;;5029487;28;20492;-80
2022/12/09 12:37:15;;;;;;;0.10;0.10;;;6.10;99.90;;;;;;5026489;28;21025;-79
2022/12/09 12:39:57;;;;;;;0.10;0.10;;;5.80;99.90;;;;;;5028147;28;20498;-80
2022/12/09 12:42:31;;;;;;;0.10;0.10;;;5.90;99.90;;;;;;5028594;28;20434;-80
2022/12/09 12:48:19;;;;;;;0.20;0.20;;;6.20;99.90;;;;;;5025841;28;20487;-79
2022/12/09 12:50:59;;;;;;;0.10;0.10;;;6.90;99.90;;;;;;5024305;28;20445;-78
2022/12/09 12:54:03;;;;;;;0.10;0.10;;;7.40;99.90;;;;;;5028635;28;20489;-78
2022/12/09 12:56:37;;;;;;;0.10;0.10;;;6.70;99.90;;;;;;5027011;28;20449;-79
2022/12/09 12:59:45;;;;;;;0.10;0.10;;;6.50;99.90;;;;;;5022635;28;20441;-81
2022/12/09 13:02:30;;;;;;;0.10;0.10;;;6.70;99.90;;;;;;5020258;28;20442;-80
2022/12/09 13:05:21;;;;;;;0.10;0.10;;;6.40;99.90;;;;;;5028728;28;20434;-79
2022/12/09 13:08:17;;;;;;;0.10;0.10;;;6.30;99.90;;;;;;5030735;28;20446;-80
2022/12/09 13:10:52;;;;;;;0.13;0.13;;;5.90;99.90;;;;;;5021840;28;20501;-79